Terminal Aerodrome Forecast
Issued by NWS

Home | Current Version | Previous Version | Text Only | Print | Product List | Glossary Off
Versions: 1 2 3 4 5 6 7 8 9 10 11 12 13 14 15 16 17 18

000
FTUS43 KFGF 251700
TAFBJI
TAF
KBJI 251720Z 2518/2618 29023G30KT 5SM -SN OVC009
      TEMPO 2520/2522 P6SM NSW BKN015
     FM252200 32018G25KT P6SM BKN015
     FM260800 31009KT P6SM BKN025
     FM261500 34013KT P6SM BKN040=

USA.gov is the U.S. government's official web portal to all federal, state and local government web resources and services.